Time;durP1;ratioP1;P1;durP2;ratioP2;P2;SDS_P1;SDS_P2;PMS_P1;PMS_P2;Temp;Humidity;BMP_temperature;BMP_pressure;BME280_temperature;BME280_humidity;BME280_pressure;Samples;Min_cycle;Max_cycle;Signal;HPM_P1;HPM_P2
2023/09/28 00:02:45;;;;;;;;;10.50;8.50;;;;;21.58;61.86;100960.72;5046668;28;45750;-75
2023/09/28 00:05:14;;;;;;;;;9.50;8.00;;;;;21.55;61.46;100958.31;5049285;28;45435;-75
2023/09/28 00:07:40;;;;;;;;;11.00;9.00;;;;;21.51;62.19;100965.63;5049029;28;45434;-74
2023/09/28 00:10:09;;;;;;;;;9.00;7.25;;;;;21.48;61.68;100973.84;5049169;28;45453;-74
2023/09/28 00:12:34;;;;;;;;;12.75;10.75;;;;;21.43;62.63;100962.63;5044962;28;45625;-74
2023/09/28 00:15:00;;;;;;;;;9.50;7.75;;;;;21.43;62.38;100975.94;5051392;28;45545;-74
2023/09/28 00:17:26;;;;;;;;;9.50;7.75;;;;;21.38;62.91;100962.09;5055546;28;45618;-74
2023/09/28 00:19:51;;;;;;;;;11.25;8.75;;;;;21.35;62.32;100971.13;5050372;28;45438;-73
2023/09/28 00:22:17;;;;;;;;;9.00;7.50;;;;;21.31;62.48;100960.81;5052441;28;69807;-74
2023/09/28 00:24:42;;;;;;;;;10.00;10.00;;;;;21.31;62.91;100964.31;5052809;28;62499;-74
2023/09/28 00:27:08;;;;;;;;;10.75;9.25;;;;;21.29;63.38;100968.06;5047826;28;45597;-74
2023/09/28 00:29:33;;;;;;;;;10.75;10.00;;;;;21.26;62.69;100963.78;5050055;28;45537;-75
2023/09/28 00:31:58;;;;;;;;;8.75;7.25;;;;;21.22;62.87;100962.28;5055241;28;67165;-75
2023/09/28 00:34:24;;;;;;;;;8.75;7.00;;;;;21.19;62.99;100967.81;5067464;28;61816;-75
2023/09/28 00:36:49;;;;;;;;;10.75;6.75;;;;;21.18;62.94;100977.63;5054968;28;56866;-74
2023/09/28 00:39:14;;;;;;;;;10.25;9.75;;;;;21.16;62.62;100987.53;5058048;28;62932;-74
2023/09/28 00:41:40;;;;;;;;;11.50;7.00;;;;;21.13;63.77;100987.72;5059520;28;73594;-75
2023/09/28 00:44:05;;;;;;;;;9.75;7.50;;;;;21.13;63.63;101001.03;5056306;28;52673;-74
2023/09/28 00:46:35;;;;;;;;;7.50;7.50;;;;;21.14;63.22;101000.09;5052772;28;45284;-74
2023/09/28 00:49:05;;;;;;;;;8.75;7.25;;;;;21.14;63.96;101004.53;5042587;28;45666;-74
2023/09/28 00:51:33;;;;;;;;;8.75;7.00;;;;;21.15;63.53;101008.91;5052676;28;45666;-74
2023/09/28 00:54:03;;;;;;;;;10.25;9.00;;;;;21.18;63.46;101019.38;5054753;28;45482;-74
2023/09/28 00:56:30;;;;;;;;;8.25;7.25;;;;;21.21;63.42;101008.47;5059113;28;45431;-74
2023/09/28 00:58:56;;;;;;;;;12.50;8.75;;;;;21.23;63.03;100998.63;5049681;28;45705;-75
2023/09/28 01:01:26;;;;;;;;;8.50;6.50;;;;;21.26;63.20;101006.38;5049931;28;45845;-75
2023/09/28 01:03:51;;;;;;;;;7.00;6.50;;;;;21.27;63.02;101007.25;5050168;28;45418;-75
2023/09/28 01:06:17;;;;;;;;;11.75;8.75;;;;;21.28;62.83;101007.13;5035668;28;45677;-74
2023/09/28 01:08:42;;;;;;;;;9.50;7.00;;;;;21.24;62.82;100997.63;5058860;28;60943;-75
2023/09/28 01:11:08;;;;;;;;;7.75;7.25;;;;;21.22;63.41;100994.22;5057232;28;45450;-74
2023/09/28 01:13:34;;;;;;;;;7.50;7.50;;;;;21.21;63.30;100987.19;5055774;28;45359;-75
2023/09/28 01:15:59;;;;;;;;;7.25;6.00;;;;;21.14;63.12;100975.25;5037595;28;45649;-76
2023/09/28 01:18:25;;;;;;;;;7.25;5.75;;;;;21.15;62.80;100974.31;5055380;28;46898;-75
2023/09/28 01:20:54;;;;;;;;;6.00;6.00;;;;;21.10;63.26;100971.94;5052246;28;54860;-75
2023/09/28 01:23:20;;;;;;;;;6.75;6.75;;;;;21.05;63.49;100961.63;5046443;28;45487;-75
2023/09/28 01:25:47;;;;;;;;;7.00;4.50;;;;;21.02;63.20;100976.97;5052488;28;45506;-75
2023/09/28 01:28:12;;;;;;;;;5.50;5.50;;;;;20.99;63.27;100979.81;5048532;28;45522;-75
2023/09/28 01:30:38;;;;;;;;;5.50;5.50;;;;;20.94;64.13;100984.59;5050660;28;45286;-75
2023/09/28 01:33:04;;;;;;;;;10.75;7.50;;;;;20.93;63.92;100998.84;5039359;28;45170;-74
2023/09/28 01:35:29;;;;;;;;;5.50;5.00;;;;;20.90;64.22;100988.41;5050387;28;45469;-74
2023/09/28 01:38:10;;;;;;;;;9.50;6.00;;;;;20.88;63.66;100993.84;5050483;28;45618;-75
2023/09/28 01:40:35;;;;;;;;;6.50;5.00;;;;;20.84;63.69;101002.94;5053919;28;46051;-75
2023/09/28 01:43:01;;;;;;;;;8.25;5.75;;;;;20.82;64.27;101007.53;5036383;28;45314;-75
2023/09/28 01:45:26;;;;;;;;;5.00;5.00;;;;;20.79;64.05;101011.25;5051467;28;45296;-75
2023/09/28 01:47:52;;;;;;;;;6.25;5.00;;;;;20.79;63.93;101005.09;5046908;28;55378;-75
2023/09/28 01:50:17;;;;;;;;;6.75;5.00;;;;;20.80;64.26;101009.44;5048877;28;45212;-75
2023/09/28 01:52:42;;;;;;;;;7.75;5.75;;;;;20.80;64.34;101014.75;5051149;28;59972;-75
2023/09/28 01:55:08;;;;;;;;;5.75;5.00;;;;;20.80;64.37;101023.59;5046721;28;66420;-75
2023/09/28 01:57:33;;;;;;;;;8.00;6.75;;;;;20.82;64.46;101023.47;5056644;28;47795;-76
2023/09/28 02:00:05;;;;;;;;;5.25;4.50;;;;;20.85;64.45;101036.59;5049768;28;53911;-76
2023/09/28 02:02:34;;;;;;;;;6.50;6.00;;;;;20.88;64.18;101024.91;5054307;28;45291;-74
2023/09/28 02:04:59;;;;;;;;;6.25;6.25;;;;;20.89;63.99;101013.31;5055537;28;45451;-74
2023/09/28 02:07:24;;;;;;;;;8.00;5.25;;;;;20.93;64.33;101026.31;5056734;28;61526;-74
2023/09/28 02:09:50;;;;;;;;;7.25;5.00;;;;;20.89;64.17;101018.63;5048270;28;70329;-74
2023/09/28 02:12:15;;;;;;;;;6.25;4.75;;;;;20.93;64.12;101020.13;5056971;28;51480;-74
2023/09/28 02:14:41;;;;;;;;;8.75;6.00;;;;;20.94;63.85;101025.34;5049809;28;47144;-73
2023/09/28 02:17:06;;;;;;;;;9.00;6.25;;;;;20.94;64.42;101022.69;5052805;28;45457;-74
2023/09/28 02:19:32;;;;;;;;;4.75;4.00;;;;;20.96;63.82;101030.56;5069089;27;61742;-74
2023/09/28 02:21:57;;;;;;;;;7.00;5.00;;;;;20.94;65.05;101016.50;5055436;28;45477;-74
2023/09/28 02:24:22;;;;;;;;;9.25;7.00;;;;;20.96;64.78;101012.78;5042975;28;70344;-74
2023/09/28 02:26:51;;;;;;;;;8.25;7.00;;;;;20.93;64.04;101009.47;5044742;28;62848;-73
2023/09/28 02:29:16;;;;;;;;;7.75;5.25;;;;;20.96;64.04;101020.75;5040602;28;45356;-74
2023/09/28 02:31:42;;;;;;;;;7.50;6.00;;;;;20.96;64.11;101019.91;5048558;28;45223;-74
2023/09/28 02:34:08;;;;;;;;;5.50;5.25;;;;;20.96;63.98;101025.25;5045487;28;45512;-73
2023/09/28 02:36:34;;;;;;;;;6.75;5.50;;;;;20.98;64.02;101026.00;5049694;28;46176;-74
2023/09/28 02:38:59;;;;;;;;;7.75;5.75;;;;;20.97;63.72;101027.81;5058481;28;45604;-74
2023/09/28 02:41:24;;;;;;;;;10.25;6.25;;;;;20.97;64.37;101016.31;5039696;28;45454;-74
2023/09/28 02:43:51;;;;;;;;;5.75;4.75;;;;;20.97;64.05;101018.97;5072247;27;65736;-73
2023/09/28 02:46:16;;;;;;;;;6.00;5.00;;;;;20.97;64.13;101016.31;5037227;28;47302;-74
2023/09/28 02:48:42;;;;;;;;;6.75;5.25;;;;;20.99;64.14;101017.06;5050929;28;45474;-73
2023/09/28 02:51:07;;;;;;;;;7.00;6.00;;;;;20.97;63.95;101016.31;5050897;28;45533;-74
2023/09/28 02:53:35;;;;;;;;;5.75;5.25;;;;;20.93;64.26;101013.00;5053907;28;47435;-74
2023/09/28 02:56:00;;;;;;;;;4.00;4.00;;;;;20.92;64.28;101013.09;5048725;28;45427;-74
2023/09/28 02:58:25;;;;;;;;;7.75;5.00;;;;;20.88;64.99;101020.44;5056950;28;45510;-74
2023/09/28 03:00:52;;;;;;;;;6.50;4.25;;;;;20.86;64.82;101025.00;5040702;28;45564;-75
2023/09/28 03:03:18;;;;;;;;;3.75;2.25;;;;;20.86;64.80;101019.69;5040992;28;45301;-75
2023/09/28 03:05:44;;;;;;;;;6.00;3.50;;;;;20.82;64.38;101019.03;5049573;28;45494;-74
2023/09/28 03:08:14;;;;;;;;;5.50;5.25;;;;;20.83;64.95;101033.19;5044708;28;45403;-74
2023/09/28 03:10:40;;;;;;;;;6.25;6.00;;;;;20.79;64.74;101032.53;5067617;27;45482;-73
2023/09/28 03:13:06;;;;;;;;;8.00;6.00;;;;;20.77;64.82;101038.88;5056148;28;45578;-74
2023/09/28 03:15:32;;;;;;;;;5.00;5.00;;;;;20.76;65.21;101035.38;5048168;28;67058;-74
2023/09/28 03:17:58;;;;;;;;;5.00;4.00;;;;;20.76;64.90;101031.88;5053825;28;45721;-73
2023/09/28 03:20:24;;;;;;;;;6.25;5.25;;;;;20.76;65.25;101034.53;5056141;28;45530;-74
2023/09/28 03:22:50;;;;;;;;;8.50;5.25;;;;;20.79;65.33;101031.69;5056528;28;45267;-75
2023/09/28 03:25:17;;;;;;;;;6.50;5.00;;;;;20.81;64.93;101035.09;5057285;28;45580;-74
2023/09/28 03:27:44;;;;;;;;;7.50;5.50;;;;;20.83;65.12;101038.50;5050314;28;45233;-74
2023/09/28 03:30:11;;;;;;;;;5.50;5.50;;;;;20.78;65.35;101035.28;5050763;28;45783;-75
2023/09/28 03:32:39;;;;;;;;;7.75;5.75;;;;;20.82;64.99;101050.97;5032763;28;45469;-75
2023/09/28 03:35:07;;;;;;;;;3.75;2.00;;;;;20.84;64.61;101051.72;5055989;28;46462;-74
2023/09/28 03:37:33;;;;;;;;;6.25;4.50;;;;;20.86;63.89;101064.91;5049327;28;46034;-74
2023/09/28 03:40:00;;;;;;;;;3.25;3.25;;;;;20.82;63.24;101066.03;5067064;27;58809;-75
2023/09/28 03:42:26;;;;;;;;;3.00;3.00;;;;;20.75;62.64;101067.41;5050078;28;45345;-75
2023/09/28 03:44:52;;;;;;;;;3.00;1.75;;;;;20.68;60.83;101074.91;5067809;28;47380;-75
2023/09/28 03:47:17;;;;;;;;;5.25;0.50;;;;;20.56;59.94;101083.66;5048746;28;45387;-74
2023/09/28 03:49:43;;;;;;;;;7.50;1.75;;;;;20.44;58.73;101085.28;5044847;28;62611;-75
2023/09/28 03:52:08;;;;;;;;;3.50;1.00;;;;;20.30;58.71;101079.00;5047465;28;60949;-74
2023/09/28 03:54:34;;;;;;;;;4.00;1.00;;;;;20.22;58.16;101076.00;5051664;28;45622;-74
2023/09/28 03:56:59;;;;;;;;;6.00;1.00;;;;;20.15;57.87;101080.00;5055269;28;58345;-74
2023/09/28 03:59:25;;;;;;;;;3.00;0.00;;;;;20.05;57.57;101087.66;5041056;28;59757;-74
2023/09/28 04:01:50;;;;;;;;;2.00;1.00;;;;;19.98;57.39;101081.00;5052046;28;45307;-74
2023/09/28 04:04:16;;;;;;;;;6.75;1.00;;;;;19.94;57.30;101081.28;5059653;28;46331;-73
2023/09/28 04:06:41;;;;;;;;;3.00;2.00;;;;;19.87;57.52;101075.50;5049728;28;45435;-74
2023/09/28 04:09:07;;;;;;;;;2.00;1.50;;;;;19.80;57.10;101076.84;5046216;28;54536;-74
2023/09/28 04:11:34;;;;;;;;;3.00;0.00;;;;;19.74;57.12;101075.38;5037498;28;45582;-74
2023/09/28 04:14:01;;;;;;;;;7.00;1.00;;;;;19.70;57.73;101074.66;5054925;28;47261;-75
2023/09/28 04:16:26;;;;;;;;;2.75;1.00;;;;;19.66;57.53;101072.31;5042857;28;45474;-75
2023/09/28 04:18:52;;;;;;;;;2.00;1.00;;;;;19.65;57.62;101086.53;5051334;28;45543;-75
2023/09/28 04:21:17;;;;;;;;;0.50;0.50;;;;;19.62;57.00;101086.69;5039761;28;45470;-75
2023/09/28 04:23:42;;;;;;;;;1.25;0.75;;;;;19.56;57.68;101089.72;5063432;28;61670;-75
2023/09/28 04:26:08;;;;;;;;;2.25;0.75;;;;;19.54;57.30;101093.31;5052324;28;45546;-75
2023/09/28 04:28:34;;;;;;;;;0.75;0.75;;;;;19.53;57.10;101094.28;5059882;28;45488;-75
2023/09/28 04:30:59;;;;;;;;;2.75;1.00;;;;;19.53;57.46;101101.41;5049023;28;45418;-75
2023/09/28 04:33:24;;;;;;;;;2.00;1.00;;;;;19.55;57.51;101107.47;5051738;28;46277;-75
2023/09/28 04:35:50;;;;;;;;;2.25;2.00;;;;;19.55;57.25;101112.78;5049836;28;65131;-76
2023/09/28 04:38:15;;;;;;;;;4.75;1.00;;;;;19.51;56.80;101109.44;5051635;28;54163;-75
2023/09/28 04:40:41;;;;;;;;;4.50;1.00;;;;;19.52;56.96;101115.59;5055948;28;45725;-74
2023/09/28 04:43:08;;;;;;;;;5.00;1.75;;;;;19.53;57.14;101112.84;5052417;28;46702;-74
2023/09/28 04:45:33;;;;;;;;;2.00;1.25;;;;;19.53;57.06;101110.22;5055586;28;45274;-74
2023/09/28 04:47:59;;;;;;;;;3.00;1.75;;;;;19.50;57.29;101106.88;5053525;28;45485;-74
2023/09/28 04:50:25;;;;;;;;;4.25;2.75;;;;;19.54;57.09;101111.91;5051770;28;45506;-75
2023/09/28 04:52:50;;;;;;;;;2.75;2.00;;;;;19.56;57.16;101108.31;5042410;28;69131;-75
2023/09/28 04:55:16;;;;;;;;;7.75;2.00;;;;;19.56;57.37;101100.34;5049429;28;45229;-76
2023/09/28 04:57:41;;;;;;;;;4.00;2.00;;;;;19.57;56.92;101102.06;5048486;28;45336;-73
2023/09/28 05:00:09;;;;;;;;;5.00;1.00;;;;;19.57;56.99;101113.53;5047322;28;45674;-75
2023/09/28 05:02:35;;;;;;;;;4.00;2.00;;;;;19.58;57.39;101109.06;5066296;27;45521;-75
2023/09/28 05:05:00;;;;;;;;;2.50;1.75;;;;;19.58;56.93;101101.94;5069856;27;45562;-75
2023/09/28 05:07:26;;;;;;;;;4.25;2.00;;;;;19.62;57.05;101110.59;5051321;28;45427;-75
2023/09/28 05:09:51;;;;;;;;;3.75;2.00;;;;;19.61;56.90;101106.25;5055042;28;65039;-75
2023/09/28 05:12:16;;;;;;;;;5.00;1.50;;;;;19.59;57.17;101113.44;5052776;28;69984;-75
2023/09/28 05:14:42;;;;;;;;;1.00;1.00;;;;;19.58;57.10;101117.03;5058500;28;45560;-74
2023/09/28 05:17:07;;;;;;;;;1.75;1.00;;;;;19.56;57.04;101118.94;5053233;28;45513;-74
2023/09/28 05:19:33;;;;;;;;;5.50;2.00;;;;;19.54;57.24;101119.00;5050682;28;48005;-74
2023/09/28 05:21:58;;;;;;;;;3.75;2.50;;;;;19.56;57.27;101121.59;5051967;28;46144;-75
2023/09/28 05:24:23;;;;;;;;;4.25;1.00;;;;;19.57;57.40;101128.63;5056126;28;60278;-75
2023/09/28 05:26:49;;;;;;;;;2.75;2.00;;;;;19.57;56.81;101126.81;5066884;28;66594;-75
2023/09/28 05:29:14;;;;;;;;;2.00;1.00;;;;;19.57;57.07;101131.28;5048988;28;45501;-75
2023/09/28 05:31:40;;;;;;;;;6.00;3.00;;;;;19.56;57.20;101126.91;5047801;28;66772;-76
2023/09/28 05:34:06;;;;;;;;;4.00;2.00;;;;;19.51;57.61;101128.03;5049543;28;45499;-76
2023/09/28 05:36:31;;;;;;;;;5.00;2.00;;;;;19.50;57.29;101133.41;5054497;28;45510;-74
2023/09/28 05:38:56;;;;;;;;;4.75;1.00;;;;;19.42;57.33;101125.03;5052856;28;45271;-74
2023/09/28 05:41:22;;;;;;;;;3.25;2.00;;;;;19.40;57.33;101130.44;5059917;28;47375;-73
2023/09/28 05:43:48;;;;;;;;;6.50;4.75;;;;;19.37;57.48;101135.06;5044924;28;45288;-73
2023/09/28 05:46:14;;;;;;;;;4.25;2.50;;;;;19.34;57.67;101146.72;5057988;28;45374;-76
2023/09/28 05:48:40;;;;;;;;;6.75;2.25;;;;;19.33;57.84;101161.75;5054292;28;45425;-80
2023/09/28 05:51:05;;;;;;;;;4.75;2.00;;;;;19.34;57.82;101160.00;5051627;28;45540;-74
2023/09/28 05:53:30;;;;;;;;;3.75;2.00;;;;;19.32;58.00;101172.50;5047062;28;45370;-70
2023/09/28 05:55:56;;;;;;;;;8.00;2.00;;;;;19.33;57.92;101176.84;5056372;28;67852;-69
2023/09/28 05:58:21;;;;;;;;;4.75;2.00;;;;;19.37;58.16;101170.44;5055328;28;45748;-74
2023/09/28 06:00:47;;;;;;;;;2.75;1.00;;;;;19.39;58.04;101165.91;5053383;28;45531;-74
2023/09/28 06:03:13;;;;;;;;;3.25;2.00;;;;;19.41;57.77;101160.50;5043198;28;45368;-72
2023/09/28 06:05:39;;;;;;;;;2.25;1.25;;;;;19.41;57.94;101166.66;5056827;28;45330;-74
2023/09/28 06:08:04;;;;;;;;;3.75;1.50;;;;;19.41;57.51;101169.31;5059564;28;45426;-73
2023/09/28 06:10:30;;;;;;;;;2.00;2.00;;;;;19.35;57.77;101167.88;5038717;28;47268;-80
2023/09/28 06:12:58;;;;;;;;;9.25;3.50;;;;;19.31;57.86;101168.97;5050350;28;45550;-73
2023/09/28 06:15:23;;;;;;;;;5.75;1.50;;;;;19.29;57.60;101170.00;5055691;28;45424;-75
2023/09/28 06:17:49;;;;;;;;;4.50;2.00;;;;;19.26;57.52;101173.69;5047489;28;45439;-73
2023/09/28 06:20:15;;;;;;;;;4.75;3.00;;;;;19.24;58.09;101170.25;5042747;28;46114;-72
2023/09/28 06:22:40;;;;;;;;;3.50;1.75;;;;;19.22;57.85;101168.66;5053917;28;45188;-71
2023/09/28 06:25:08;;;;;;;;;2.50;1.00;;;;;19.16;58.08;101167.19;5055464;28;52886;-72
2023/09/28 06:27:33;;;;;;;;;5.25;3.25;;;;;19.18;57.73;101186.53;5055188;28;45513;-72
2023/09/28 06:29:58;;;;;;;;;6.25;2.25;;;;;19.10;58.11;101178.13;5034837;28;47203;-75
2023/09/28 06:32:25;;;;;;;;;6.00;2.00;;;;;19.14;57.89;101180.56;5052960;28;73214;-73
2023/09/28 06:34:52;;;;;;;;;3.25;2.00;;;;;19.08;57.81;101185.34;5050717;28;45848;-73
2023/09/28 06:37:17;;;;;;;;;3.25;2.75;;;;;19.07;58.34;101196.88;5057387;28;45344;-74
2023/09/28 06:39:43;;;;;;;;;11.25;3.00;;;;;19.03;58.43;101177.63;5057087;28;71666;-76
2023/09/28 06:42:08;;;;;;;;;5.00;3.00;;;;;19.06;58.14;101195.19;5056837;28;45266;-74
2023/09/28 06:44:36;;;;;;;;;1.75;1.00;;;;;19.05;58.56;101193.44;5056567;27;58738;-73
2023/09/28 06:47:02;;;;;;;;;3.00;2.00;;;;;19.06;58.40;101188.06;5051097;28;45420;-74
2023/09/28 06:49:27;;;;;;;;;10.25;6.00;;;;;19.07;58.51;101183.59;5058301;28;48212;-76
2023/09/28 06:51:53;;;;;;;;;6.00;3.50;;;;;19.07;58.00;101197.75;5032165;28;45513;-72
2023/09/28 06:54:20;;;;;;;;;12.00;7.00;;;;;19.05;57.96;101199.63;5063694;28;45336;-70
2023/09/28 06:56:49;;;;;;;;;3.00;2.25;;;;;19.02;58.38;101201.59;5055193;28;45339;-73
2023/09/28 06:59:14;;;;;;;;;9.50;2.25;;;;;18.98;57.68;101200.88;5055340;28;46255;-73
2023/09/28 07:01:40;;;;;;;;;3.75;3.00;;;;;18.93;57.96;101195.00;5049458;28;45672;-74
2023/09/28 07:04:06;;;;;;;;;5.50;2.25;;;;;18.92;57.94;101195.94;5054816;28;45276;-73
2023/09/28 07:06:33;;;;;;;;;7.25;4.00;;;;;18.91;58.15;101194.19;5052693;28;45424;-72
2023/09/28 07:08:59;;;;;;;;;6.50;2.00;;;;;18.89;58.40;101189.00;5046218;28;46330;-73
2023/09/28 07:11:26;;;;;;;;;5.50;2.25;;;;;18.90;58.30;101184.56;5053140;28;45477;-72
2023/09/28 07:13:51;;;;;;;;;13.00;8.00;;;;;18.90;58.05;101188.06;5050758;28;45374;-73
2023/09/28 07:16:17;;;;;;;;;5.25;3.00;;;;;18.89;57.98;101191.66;5042140;28;46153;-72
2023/09/28 07:18:42;;;;;;;;;4.25;2.00;;;;;18.92;58.21;101196.78;5056888;28;45514;-72
2023/09/28 07:21:07;;;;;;;;;8.75;3.50;;;;;18.93;58.03;101200.31;5053583;28;59630;-73
2023/09/28 07:23:34;;;;;;;;;5.50;3.00;;;;;18.92;57.55;101206.53;5043564;28;50987;-73
2023/09/28 07:26:00;;;;;;;;;5.25;1.75;;;;;18.90;57.70;101214.56;5048169;28;45279;-73
2023/09/28 07:28:26;;;;;;;;;6.75;4.75;;;;;18.83;57.90;101218.50;5039868;28;45420;-72
2023/09/28 07:30:52;;;;;;;;;4.50;2.25;;;;;18.82;57.49;101230.03;5039659;28;45734;-72
2023/09/28 07:33:17;;;;;;;;;7.00;1.00;;;;;18.79;57.59;101240.78;5045954;28;45524;-72
2023/09/28 07:35:43;;;;;;;;;10.00;2.25;;;;;18.76;57.50;101249.75;5049190;28;45379;-72
2023/09/28 07:38:09;;;;;;;;;6.25;2.00;;;;;18.81;57.65;101251.31;5038139;28;47407;-72
2023/09/28 07:40:34;;;;;;;;;4.75;2.00;;;;;18.82;57.74;101251.25;5045592;28;45495;-72
2023/09/28 07:43:00;;;;;;;;;3.50;2.00;;;;;18.85;57.60;101247.59;5058798;28;45473;-72
2023/09/28 07:45:25;;;;;;;;;4.75;2.00;;;;;18.84;57.23;101253.81;5044616;28;45288;-72
2023/09/28 07:47:50;;;;;;;;;1.25;1.00;;;;;18.84;57.47;101256.47;5057562;28;58808;-72
2023/09/28 07:50:16;;;;;;;;;9.00;3.00;;;;;18.86;57.58;101255.47;5053310;28;45380;-72
2023/09/28 07:52:44;;;;;;;;;4.00;2.00;;;;;18.86;57.43;101249.31;5041843;28;45477;-72
2023/09/28 07:55:11;;;;;;;;;4.00;1.50;;;;;18.88;57.16;101256.25;5055098;28;45575;-72
2023/09/28 07:57:36;;;;;;;;;2.75;2.25;;;;;18.84;56.95;101249.41;5048559;28;46106;-72
2023/09/28 08:00:03;;;;;;;;;5.75;2.75;;;;;18.86;57.23;101255.47;5043921;28;45360;-72
2023/09/28 08:02:29;;;;;;;;;5.50;4.00;;;;;18.89;57.17;101265.91;5058321;28;45492;-72
2023/09/28 08:04:55;;;;;;;;;7.25;3.00;;;;;18.90;56.90;101262.31;5057850;28;45515;-72
2023/09/28 08:07:21;;;;;;;;;6.50;2.00;;;;;18.91;56.62;101258.75;5058302;28;46795;-72
2023/09/28 08:09:47;;;;;;;;;7.00;1.25;;;;;18.94;56.85;101249.75;5042538;28;45612;-72
2023/09/28 08:12:13;;;;;;;;;3.75;1.00;;;;;19.00;56.96;101262.69;5049484;28;45272;-71
2023/09/28 08:14:38;;;;;;;;;5.00;2.50;;;;;19.04;56.71;101255.41;5037927;28;45473;-71
2023/09/28 08:17:04;;;;;;;;;6.25;3.25;;;;;19.13;56.37;101260.22;5040325;28;46005;-72
2023/09/28 08:19:29;;;;;;;;;5.25;2.50;;;;;19.20;56.00;101261.59;5048708;28;45374;-72
2023/09/28 08:21:55;;;;;;;;;5.00;2.00;;;;;19.33;56.34;101267.06;5049071;28;45277;-72
2023/09/28 08:24:20;;;;;;;;;4.00;2.50;;;;;19.44;55.96;101261.16;5040424;28;45560;-72
2023/09/28 08:26:45;;;;;;;;;7.75;3.00;;;;;19.60;55.75;101258.50;5038222;28;68416;-73
2023/09/28 08:29:11;;;;;;;;;9.25;3.00;;;;;19.68;55.72;101265.09;5052239;28;51912;-73
2023/09/28 08:31:36;;;;;;;;;3.00;2.00;;;;;19.78;55.54;101280.53;5056292;28;64933;-73
2023/09/28 08:34:03;;;;;;;;;5.00;1.25;;;;;19.90;55.54;101294.00;5046479;28;45480;-73
2023/09/28 08:36:29;;;;;;;;;7.25;3.00;;;;;20.01;54.75;101290.72;5054785;28;47152;-73
2023/09/28 08:38:55;;;;;;;;;2.50;1.25;;;;;20.11;54.36;101301.66;5058691;28;45433;-72
2023/09/28 08:41:29;;;;;;;;;2.25;1.25;;;;;20.20;54.63;101302.91;5054440;28;45520;-72
2023/09/28 08:44:02;;;;;;;;;6.00;2.00;;;;;20.30;54.08;101294.31;5056755;28;45564;-73
2023/09/28 08:46:29;;;;;;;;;7.50;2.00;;;;;20.41;53.88;101303.47;5053911;28;45967;-72
2023/09/28 08:49:00;;;;;;;;;7.50;3.75;;;;;20.49;53.82;101302.06;5060625;28;45770;-72
2023/09/28 08:51:26;;;;;;;;;4.00;2.50;;;;;20.54;53.27;101299.13;5050630;28;45418;-72
2023/09/28 08:53:52;;;;;;;;;5.50;1.00;;;;;20.55;54.20;101295.50;5047345;28;45399;-72
2023/09/28 08:56:18;;;;;;;;;5.75;3.00;;;;;20.56;53.58;101294.59;5055101;28;46253;-72
2023/09/28 08:58:45;;;;;;;;;6.00;2.00;;;;;20.62;53.65;101282.75;5056981;28;58684;-73
2023/09/28 09:01:11;;;;;;;;;5.25;2.50;;;;;20.69;53.33;101283.22;5053415;28;49172;-73
2023/09/28 09:03:39;;;;;;;;;9.00;3.50;;;;;20.73;53.37;101266.13;5048433;28;45288;-73
2023/09/28 09:06:06;;;;;;;;;4.50;2.25;;;;;20.78;53.46;101274.69;5044405;28;46965;-72
2023/09/28 09:08:35;;;;;;;;;5.00;1.75;;;;;20.87;53.61;101271.44;5052590;28;45498;-71
2023/09/28 09:11:00;;;;;;;;;4.25;2.00;;;;;20.92;53.12;101257.88;5055918;28;45372;-72
2023/09/28 09:13:26;;;;;;;;;1.25;0.00;;;;;21.02;52.29;101277.66;5064094;28;45445;-71
2023/09/28 09:15:52;;;;;;;;;2.75;0.00;;;;;21.06;51.64;101263.19;5046887;28;45995;-72
2023/09/28 09:18:21;;;;;;;;;3.00;3.00;;;;;21.03;50.85;101258.03;5052761;28;45193;-72
2023/09/28 09:20:47;;;;;;;;;4.00;1.25;;;;;21.02;51.31;101259.03;5050428;28;46542;-72
2023/09/28 09:23:14;;;;;;;;;7.00;3.00;;;;;20.99;51.67;101254.72;5061459;28;45461;-71
2023/09/28 09:25:42;;;;;;;;;5.75;2.25;;;;;20.96;51.17;101251.41;5051525;28;45557;-71
2023/09/28 09:28:07;;;;;;;;;2.50;1.25;;;;;20.96;51.78;101257.56;5055091;28;45271;-73
2023/09/28 09:30:36;;;;;;;;;1.50;1.50;;;;;20.99;51.77;101253.88;5050934;28;47358;-73
2023/09/28 09:33:04;;;;;;;;;3.25;2.00;;;;;21.02;51.79;101243.06;5045953;28;45411;-73
2023/09/28 09:35:30;;;;;;;;;2.00;1.50;;;;;21.08;52.02;101260.44;5049240;28;46325;-72
2023/09/28 09:37:56;;;;;;;;;5.75;4.50;;;;;21.10;52.00;101271.84;5050068;28;45775;-72
2023/09/28 09:40:21;;;;;;;;;4.25;1.00;;;;;21.08;51.15;101274.59;5055011;28;45242;-73
2023/09/28 09:42:46;;;;;;;;;2.75;1.75;;;;;21.09;50.89;101278.09;5041596;28;61708;-73
2023/09/28 09:45:12;;;;;;;;;3.00;1.00;;;;;21.12;51.46;101272.59;5049156;28;63221;-73
2023/09/28 09:47:46;;;;;;;;;3.50;1.00;;;;;21.20;51.19;101267.66;5052336;28;45336;-73
2023/09/28 09:50:14;;;;;;;;;4.00;2.00;;;;;21.22;51.07;101263.91;5050765;28;45446;-72
2023/09/28 09:52:41;;;;;;;;;2.25;1.75;;;;;21.27;50.54;101276.09;5046599;28;45264;-73
2023/09/28 09:55:08;;;;;;;;;6.75;1.00;;;;;21.31;50.06;101281.13;5051378;28;46405;-73
2023/09/28 09:57:37;;;;;;;;;1.00;1.00;;;;;21.38;51.34;101284.25;5042314;28;45353;-73
2023/09/28 10:00:06;;;;;;;;;2.50;1.25;;;;;21.47;50.83;101288.16;5042870;28;45239;-73
2023/09/28 10:02:36;;;;;;;;;5.50;1.75;;;;;21.58;50.61;101285.66;5053180;28;45651;-73
2023/09/28 10:05:04;;;;;;;;;4.00;2.00;;;;;21.69;50.28;101279.63;5042830;28;46397;-73
2023/09/28 10:07:33;;;;;;;;;2.00;1.00;;;;;21.74;50.10;101273.06;5047911;28;45421;-73
2023/09/28 10:09:59;;;;;;;;;7.25;2.25;;;;;21.82;50.36;101272.56;5063188;28;45393;-73
2023/09/28 10:12:28;;;;;;;;;3.00;2.00;;;;;21.87;50.37;101261.56;5052204;28;45515;-73
2023/09/28 10:14:56;;;;;;;;;2.00;2.00;;;;;21.92;50.46;101256.81;5041211;28;45880;-72
2023/09/28 10:17:24;;;;;;;;;5.50;1.00;;;;;21.95;50.02;101269.94;5040179;28;45347;-73
2023/09/28 10:19:50;;;;;;;;;3.75;2.00;;;;;21.99;50.54;101261.63;5042062;28;45320;-74
2023/09/28 10:22:15;;;;;;;;;7.00;3.00;;;;;22.04;49.86;101255.97;5040966;27;45493;-73
2023/09/28 10:24:42;;;;;;;;;3.75;2.00;;;;;22.05;49.95;101239.03;5044759;28;45444;-73
2023/09/28 10:27:09;;;;;;;;;8.25;2.00;;;;;22.10;49.82;101249.41;5061041;28;45621;-73
2023/09/28 10:29:35;;;;;;;;;4.75;1.25;;;;;22.11;49.85;101246.63;5046440;28;45530;-73
2023/09/28 10:32:03;;;;;;;;;5.00;2.00;;;;;22.18;48.93;101249.72;5058981;28;45364;-72
2023/09/28 10:34:29;;;;;;;;;2.25;2.00;;;;;22.17;48.59;101245.38;5048161;28;45403;-72
2023/09/28 10:37:13;;;;;;;;;3.50;2.25;;;;;22.21;49.00;101246.00;5059244;28;46062;-72
2023/09/28 10:39:41;;;;;;;;;2.00;1.75;;;;;22.25;49.30;101253.69;5052794;28;45367;-72
2023/09/28 10:42:15;;;;;;;;;2.00;1.00;;;;;22.27;48.54;101250.94;5059052;28;45265;-72
2023/09/28 10:44:55;;;;;;;;;2.50;1.50;;;;;22.30;48.70;101248.94;5059062;28;46494;-73
2023/09/28 10:47:21;;;;;;;;;7.00;2.00;;;;;22.30;48.50;101232.94;5044541;28;45299;-72
2023/09/28 10:49:48;;;;;;;;;4.00;1.00;;;;;22.33;46.88;101218.53;5043585;28;45364;-73
2023/09/28 10:52:14;;;;;;;;;5.75;3.25;;;;;22.35;47.27;101216.63;5052949;28;45319;-74
2023/09/28 10:54:39;;;;;;;;;5.00;3.00;;;;;22.37;46.95;101215.53;5041600;28;46167;-74
2023/09/28 10:57:06;;;;;;;;;7.00;3.25;;;;;22.41;47.37;101223.34;5050217;28;45739;-73
2023/09/28 10:59:31;;;;;;;;;5.00;3.00;;;;;22.51;47.32;101232.41;5044109;28;45272;-73
2023/09/28 11:01:57;;;;;;;;;6.75;2.00;;;;;22.58;46.97;101233.69;5051725;28;45344;-72
2023/09/28 11:04:22;;;;;;;;;4.75;2.00;;;;;22.58;47.09;101227.50;5054212;28;47114;-72
2023/09/28 11:06:49;;;;;;;;;5.25;2.50;;;;;22.62;47.22;101229.00;5049428;28;45349;-73
2023/09/28 11:09:19;;;;;;;;;4.00;3.50;;;;;22.63;46.77;101225.34;5055862;28;45617;-73
2023/09/28 11:11:44;;;;;;;;;6.00;3.00;;;;;22.63;45.56;101226.22;5040919;28;45356;-72
2023/09/28 11:14:13;;;;;;;;;6.00;2.00;;;;;22.61;46.75;101225.47;5056968;28;45525;-74
2023/09/28 11:16:40;;;;;;;;;4.75;3.25;;;;;22.56;46.50;101235.63;5057393;28;45701;-73
2023/09/28 11:19:05;;;;;;;;;4.00;2.00;;;;;22.58;46.62;101232.84;5056884;28;45362;-73
2023/09/28 11:21:31;;;;;;;;;8.25;3.25;;;;;22.62;47.31;101235.19;5057038;28;46358;-74